Koushinmaru No.5 — JL6695 — position and weather

sailwx.info

Track history (hours):
 
Tides and Currents Weather Stations Pressure Air Temp Water Temp Dewpoint Dewpoint Depression Visibility Wind Speed Wind Dir Waves Ship Positions

Koushinmaru No.5

Last reported at 2014-Nov-27 03:33 UTC. Time now 2014-Nov-27 04:27 UTC.
Position N 35°25' E 139°46'.

Length 75 m; draft 5 m.

Type: Cargo ship. MMSI: 431301703.

Date/timePositionNaut miles runAvg speedWind from/ knotsBaromVisibWave heightAir tempDewpointWater temp
2014-Nov-27 03:33N 35°25' E 139°46'4 4.4
2014-Nov-27 02:34N 35°22' E 139°49'0 0.0
2014-Nov-27 01:34N 35°22' E 139°49'0 0.0
2014-Nov-27 00:34N 35°22' E 139°49'0 0.0
2014-Nov-26 23:34N 35°22' E 139°49'0 0.1
2014-Nov-26 22:34N 35°22' E 139°49'0 0.0
2014-Nov-26 21:34N 35°22' E 139°49'1 0.9
2014-Nov-26 20:34N 35°22' E 139°50'1 0.7
2014-Nov-26 19:34N 35°22' E 139°51'0 0.0
2014-Nov-26 18:33N 35°22' E 139°51'0 0.0
2014-Nov-26 17:34N 35°22' E 139°51'0 0.0
2014-Nov-26 16:34N 35°22' E 139°51'0 0.0
2014-Nov-26 15:34N 35°22' E 139°51'0 0.0
2014-Nov-26 14:34N 35°22' E 139°51'0 0.0
2014-Nov-26 13:33N 35°22' E 139°51'0 0.0
2014-Nov-26 12:33N 35°22' E 139°51'2 1.6
2014-Nov-26 11:33N 35°22' E 139°49'0 0.0
2014-Nov-26 10:33N 35°22' E 139°49'0 0.4
2014-Nov-26 09:33N 35°22' E 139°49'1211.5
2014-Nov-26 08:33N 35°33' E 139°51'  
2014-Nov-22 14:05N 35°29' E 139°53'610.7
2014-Nov-22 13:32N 35°25' E 139°48'9 9.2
2014-Nov-22 12:34N 35°17' E 139°46'  
Track history (hours):
 
Tides and Currents Weather Stations Pressure Air Temp Water Temp Dewpoint Dewpoint Depression Visibility Wind Speed Wind Dir Waves Ship Positions

Koushinmaru No.5

Last reported at 2014-Nov-27 03:33 UTC. Time now 2014-Nov-27 04:27 UTC.
Position N 35°25' E 139°46'.

Length 75 m; draft 5 m.

Type: Cargo ship. MMSI: 431301703.

Date/timePositionNaut miles runAvg speedWind from/ knotsBaromVisibWave heightAir tempDewpointWater temp
2014-Nov-27 03:33N 35°25' E 139°46'4 4.4
2014-Nov-27 02:34N 35°22' E 139°49'0 0.0
2014-Nov-27 01:34N 35°22' E 139°49'0 0.0
2014-Nov-27 00:34N 35°22' E 139°49'0 0.0
2014-Nov-26 23:34N 35°22' E 139°49'0 0.1
2014-Nov-26 22:34N 35°22' E 139°49'0 0.0
2014-Nov-26 21:34N 35°22' E 139°49'1 0.9
2014-Nov-26 20:34N 35°22' E 139°50'1 0.7
2014-Nov-26 19:34N 35°22' E 139°51'0 0.0
2014-Nov-26 18:33N 35°22' E 139°51'0 0.0
2014-Nov-26 17:34N 35°22' E 139°51'0 0.0
2014-Nov-26 16:34N 35°22' E 139°51'0 0.0
2014-Nov-26 15:34N 35°22' E 139°51'0 0.0
2014-Nov-26 14:34N 35°22' E 139°51'0 0.0
2014-Nov-26 13:33N 35°22' E 139°51'0 0.0
2014-Nov-26 12:33N 35°22' E 139°51'2 1.6
2014-Nov-26 11:33N 35°22' E 139°49'0 0.0
2014-Nov-26 10:33N 35°22' E 139°49'0 0.4
2014-Nov-26 09:33N 35°22' E 139°49'1211.5
2014-Nov-26 08:33N 35°33' E 139°51'  
2014-Nov-22 14:05N 35°29' E 139°53'610.7
2014-Nov-22 13:32N 35°25' E 139°48'9 9.2
2014-Nov-22 12:34N 35°17' E 139°46'  

Dump ship's entire track history